Time;durP1;ratioP1;P1;durP2;ratioP2;P2;SDS_P1;SDS_P2;PMS_P1;PMS_P2;Temp;Humidity;BMP_temperature;BMP_pressure;BME280_temperature;BME280_humidity;BME280_pressure;Samples;Min_cycle;Max_cycle;Signal;HPM_P1;HPM_P2
2022/01/06 00:00:24;;;;;;;0.40;0.13;;;7.60;25.10;;;;;;6035641;23;20425;-78
2022/01/06 00:02:51;;;;;;;0.43;0.30;;;7.60;24.90;;;;;;6037025;23;20904;-78
2022/01/06 00:05:19;;;;;;;0.30;0.10;;;7.60;25.00;;;;;;6035895;23;20417;-77
2022/01/06 00:07:47;;;;;;;0.68;0.20;;;7.60;25.20;;;;;;6035596;23;20381;-80
2022/01/06 00:10:15;;;;;;;0.40;0.10;;;7.60;24.80;;;;;;6036186;23;20401;-81
2022/01/06 00:12:49;;;;;;;0.70;0.20;;;7.60;25.20;;;;;;6035689;23;20376;-81
2022/01/06 00:23:33;;;;;;;0.00;0.00;;;7.70;24.80;;;;;;6036674;23;20732;-77
2022/01/06 00:26:01;;;;;;;0.60;0.20;;;7.60;24.90;;;;;;6034528;23;20389;-79
2022/01/06 00:28:29;;;;;;;0.80;0.10;;;7.70;25.10;;;;;;6037168;23;20381;-79
2022/01/06 00:30:56;;;;;;;0.20;0.10;;;7.70;24.90;;;;;;6009764;23;20389;-81
2022/01/06 00:33:28;;;;;;;0.38;0.10;;;7.60;24.90;;;;;;6034217;23;20838;-77
2022/01/06 00:35:55;;;;;;;0.35;0.10;;;7.60;25.00;;;;;;6034891;23;20392;-79
2022/01/06 00:38:25;;;;;;;0.10;0.00;;;7.60;24.90;;;;;;6034979;23;20372;-78
2022/01/06 00:40:54;;;;;;;0.30;0.10;;;7.60;25.20;;;;;;6035723;23;20452;-80
2022/01/06 00:43:21;;;;;;;0.22;0.08;;;7.60;25.20;;;;;;6034672;23;20393;-78
2022/01/06 00:45:50;;;;;;;0.40;0.05;;;7.60;25.10;;;;;;6035419;23;20743;-77
2022/01/06 00:48:17;;;;;;;0.20;0.10;;;7.60;25.20;;;;;;6034185;23;20380;-78
2022/01/06 00:50:44;;;;;;;0.30;0.10;;;7.50;25.30;;;;;;6035877;23;20393;-78
2022/01/06 00:53:12;;;;;;;0.40;0.10;;;7.50;25.30;;;;;;6034464;23;20692;-80
2022/01/06 00:55:40;;;;;;;0.68;0.10;;;7.50;25.40;;;;;;6035148;23;20389;-80
2022/01/06 00:58:07;;;;;;;0.60;0.10;;;7.50;25.60;;;;;;6021545;23;20715;-80
2022/01/06 01:00:40;;;;;;;0.20;0.10;;;7.40;25.90;;;;;;6035246;23;20387;-79
2022/01/06 01:03:19;;;;;;;0.60;0.10;;;7.40;25.70;;;;;;6034125;23;20385;-81
2022/01/06 01:05:49;;;;;;;0.40;0.10;;;7.30;26.10;;;;;;6034460;23;20388;-78
2022/01/06 01:08:17;;;;;;;0.77;0.10;;;7.40;25.60;;;;;;6033795;23;20385;-78
2022/01/06 01:10:46;;;;;;;0.20;0.10;;;7.30;26.00;;;;;;6035120;23;20393;-78
2022/01/06 01:13:14;;;;;;;1.63;0.20;;;7.30;25.90;;;;;;6033457;23;20413;-79
2022/01/06 01:15:52;;;;;;;0.32;0.10;;;7.30;26.10;;;;;;6035000;23;20396;-78
2022/01/06 01:18:21;;;;;;;0.20;0.10;;;7.30;26.00;;;;;;6034092;23;20763;-81
2022/01/06 01:20:51;;;;;;;0.32;0.10;;;7.20;26.10;;;;;;6034950;23;20896;-80
2022/01/06 01:23:20;;;;;;;0.33;0.10;;;7.20;25.90;;;;;;6033763;23;20866;-78
2022/01/06 01:25:48;;;;;;;0.30;0.20;;;7.30;25.90;;;;;;6035107;23;20445;-78
2022/01/06 01:28:17;;;;;;;0.43;0.10;;;7.20;26.30;;;;;;6033952;23;20384;-79
2022/01/06 01:33:21;;;;;;;0.30;0.10;;;7.20;26.30;;;;;;6034088;23;20392;-80
2022/01/06 01:35:48;;;;;;;0.20;0.10;;;7.10;26.40;;;;;;6035436;23;20392;-79
2022/01/06 01:38:15;;;;;;;0.80;0.10;;;7.10;26.30;;;;;;6034423;23;20432;-77
2022/01/06 01:40:41;;;;;;;0.28;0.10;;;7.10;26.40;;;;;;6035157;23;20759;-78
2022/01/06 01:43:08;;;;;;;0.20;0.10;;;7.10;26.70;;;;;;6034435;23;20447;-78
2022/01/06 01:45:39;;;;;;;0.70;0.10;;;7.10;26.20;;;;;;6035335;23;20865;-78
2022/01/06 01:48:09;;;;;;;0.30;0.10;;;7.20;26.10;;;;;;6035133;23;20385;-78
2022/01/06 01:50:36;;;;;;;0.80;0.10;;;7.20;26.40;;;;;;6034498;23;20389;-77
2022/01/06 01:53:03;;;;;;;0.20;0.10;;;7.30;26.10;;;;;;6035110;23;20381;-77
2022/01/06 01:55:32;;;;;;;0.28;0.00;;;7.30;26.40;;;;;;6034700;23;20397;-80
2022/01/06 01:58:00;;;;;;;0.30;0.10;;;7.20;26.70;;;;;;6035178;23;20385;-79
2022/01/06 02:00:29;;;;;;;0.40;0.10;;;7.20;26.70;;;;;;6035066;23;20381;-80
2022/01/06 02:02:57;;;;;;;0.25;0.10;;;7.10;27.10;;;;;;6034657;23;20452;-79
2022/01/06 02:05:26;;;;;;;0.40;0.10;;;7.00;27.00;;;;;;6033975;23;20434;-80
2022/01/06 02:07:56;;;;;;;0.10;0.00;;;7.10;26.70;;;;;;6034650;23;20921;-81
2022/01/06 02:10:23;;;;;;;0.10;0.10;;;7.10;26.90;;;;;;6036111;23;20398;-80
2022/01/06 02:12:53;;;;;;;0.30;0.10;;;7.10;26.60;;;;;;6036382;23;20774;-78
2022/01/06 02:15:22;;;;;;;0.30;0.10;;;7.20;26.60;;;;;;6035750;23;20389;-81
2022/01/06 02:17:49;;;;;;;1.20;0.10;;;7.10;27.30;;;;;;6037445;23;20381;-80
2022/01/06 02:20:18;;;;;;;0.30;0.10;;;7.10;26.90;;;;;;6035573;23;20970;-78
2022/01/06 02:22:46;;;;;;;0.60;0.10;;;7.10;26.90;;;;;;6036648;23;20377;-77
2022/01/06 02:25:17;;;;;;;0.40;0.10;;;7.00;27.70;;;;;;6036230;23;20448;-79
2022/01/06 02:27:50;;;;;;;0.20;0.10;;;7.00;27.50;;;;;;6035631;23;20384;-77
2022/01/06 02:30:19;;;;;;;0.30;0.10;;;6.90;27.60;;;;;;6036060;23;20385;-78
2022/01/06 02:32:46;;;;;;;1.20;0.10;;;6.80;28.10;;;;;;6036323;23;20397;-78
2022/01/06 02:35:16;;;;;;;0.50;0.10;;;6.80;27.90;;;;;;6012936;23;20388;-81
2022/01/06 02:37:43;;;;;;;0.20;0.10;;;6.80;28.10;;;;;;6036088;23;20988;-79
2022/01/06 02:40:13;;;;;;;0.45;0.10;;;6.70;28.10;;;;;;6036916;23;20413;-78
2022/01/06 02:42:46;;;;;;;0.52;0.10;;;6.60;28.60;;;;;;6035723;23;20372;-81
2022/01/06 02:45:15;;;;;;;0.28;0.10;;;6.60;28.50;;;;;;6013575;23;20395;-81
2022/01/06 02:47:45;;;;;;;0.40;0.10;;;6.70;28.10;;;;;;6035790;23;20377;-81
2022/01/06 02:50:14;;;;;;;0.10;0.10;;;6.70;28.20;;;;;;6036150;23;20456;-78
2022/01/06 02:52:42;;;;;;;0.20;0.10;;;6.70;27.90;;;;;;6035839;23;20831;-81
2022/01/06 02:55:12;;;;;;;0.85;0.10;;;6.70;28.10;;;;;;6036207;23;20388;-77
2022/01/06 02:57:41;;;;;;;0.57;0.10;;;6.70;28.20;;;;;;6035516;23;20404;-78
2022/01/06 03:00:12;;;;;;;0.30;0.20;;;6.70;28.40;;;;;;6037698;23;20866;-79
2022/01/06 03:02:41;;;;;;;0.30;0.10;;;6.70;28.80;;;;;;6036078;23;22408;-78
2022/01/06 03:05:11;;;;;;;0.17;0.10;;;6.60;28.60;;;;;;6036336;23;20396;-81
2022/01/06 03:07:39;;;;;;;0.32;0.10;;;6.50;28.60;;;;;;6035309;23;20876;-78
2022/01/06 03:10:12;;;;;;;0.38;0.10;;;6.50;28.50;;;;;;6036632;23;20456;-81
2022/01/06 03:12:40;;;;;;;0.50;0.20;;;6.40;28.90;;;;;;6035409;23;20396;-79
2022/01/06 03:15:18;;;;;;;0.30;0.30;;;6.40;28.80;;;;;;6013391;23;20496;-78
2022/01/06 03:17:49;;;;;;;0.73;0.10;;;6.50;28.60;;;;;;6036330;23;20376;-81
2022/01/06 03:20:17;;;;;;;0.80;0.10;;;6.50;28.80;;;;;;6036613;23;20395;-81
2022/01/06 03:22:44;;;;;;;0.60;0.10;;;6.50;29.00;;;;;;6036072;23;20389;-81
2022/01/06 03:25:13;;;;;;;0.77;0.10;;;6.40;28.70;;;;;;6037528;23;20421;-81
2022/01/06 03:27:41;;;;;;;0.40;0.10;;;6.40;28.80;;;;;;6035294;23;20392;-78
2022/01/06 03:30:12;;;;;;;0.70;0.15;;;6.40;28.90;;;;;;6036209;23;20389;-79
2022/01/06 03:32:39;;;;;;;0.70;0.20;;;6.30;29.00;;;;;;6034638;23;20393;-78
2022/01/06 03:35:08;;;;;;;0.25;0.10;;;6.40;28.90;;;;;;6012574;23;20865;-78
2022/01/06 03:37:35;;;;;;;0.68;0.10;;;6.40;28.80;;;;;;6036525;23;20385;-79
2022/01/06 03:40:06;;;;;;;0.50;0.20;;;6.40;29.10;;;;;;6036138;23;20440;-80
2022/01/06 03:42:34;;;;;;;2.20;0.20;;;6.40;28.80;;;;;;6035922;23;20391;-77
2022/01/06 03:45:02;;;;;;;0.93;0.10;;;6.40;28.70;;;;;;6035088;23;20384;-79
2022/01/06 03:47:29;;;;;;;0.28;0.10;;;6.40;28.80;;;;;;6034705;23;20385;-77
2022/01/06 03:49:56;;;;;;;0.33;0.10;;;6.50;28.00;;;;;;6036760;23;20417;-80
2022/01/06 03:52:23;;;;;;;0.52;0.10;;;6.50;28.40;;;;;;6034957;23;20397;-78
2022/01/06 03:54:51;;;;;;;0.20;0.10;;;6.50;28.40;;;;;;6036150;23;20719;-78
2022/01/06 03:57:18;;;;;;;0.10;0.10;;;6.50;28.60;;;;;;6037632;23;20850;-78
2022/01/06 03:59:48;;;;;;;0.85;0.20;;;6.50;28.60;;;;;;6035361;23;20441;-79
2022/01/06 04:02:15;;;;;;;0.60;0.10;;;6.50;28.90;;;;;;6036033;23;20385;-78
2022/01/06 04:04:42;;;;;;;0.30;0.10;;;6.40;28.80;;;;;;6035692;23;20467;-77
2022/01/06 04:07:10;;;;;;;0.77;0.10;;;6.40;28.90;;;;;;6035695;23;20862;-79
2022/01/06 04:09:37;;;;;;;0.10;0.10;;;6.30;29.50;;;;;;6011847;23;20381;-78
2022/01/06 04:12:09;;;;;;;1.10;0.10;;;6.30;28.80;;;;;;6035697;23;20885;-81
2022/01/06 04:14:37;;;;;;;0.20;0.10;;;6.30;28.80;;;;;;6035130;23;20866;-77
2022/01/06 04:17:07;;;;;;;0.30;0.10;;;6.30;29.50;;;;;;5990065;23;20770;-78
2022/01/06 04:19:36;;;;;;;0.25;0.10;;;6.30;29.30;;;;;;6035014;23;20896;-78
2022/01/06 04:22:05;;;;;;;0.20;0.10;;;6.20;29.30;;;;;;6035382;23;20767;-79
2022/01/06 04:24:33;;;;;;;0.20;0.10;;;6.20;29.40;;;;;;6034871;23;20389;-79
2022/01/06 04:27:01;;;;;;;0.50;0.10;;;6.10;29.70;;;;;;6035594;23;20381;-78
2022/01/06 04:29:28;;;;;;;0.22;0.10;;;6.10;29.60;;;;;;6034435;23;20392;-81
2022/01/06 04:31:55;;;;;;;0.47;0.10;;;6.10;29.70;;;;;;6035535;23;20423;-79
2022/01/06 04:34:22;;;;;;;0.10;0.10;;;6.00;30.00;;;;;;6034695;23;20869;-78
2022/01/06 04:36:54;;;;;;;0.50;0.10;;;6.10;29.80;;;;;;6035028;23;20380;-78
2022/01/06 04:39:21;;;;;;;0.40;0.10;;;6.00;29.70;;;;;;6035569;23;20384;-81
2022/01/06 04:41:47;;;;;;;0.60;0.20;;;6.00;29.70;;;;;;6011636;23;20802;-81
2022/01/06 04:44:14;;;;;;;1.00;0.20;;;6.10;29.70;;;;;;6035232;23;20437;-78
2022/01/06 04:46:42;;;;;;;0.68;0.20;;;6.20;29.70;;;;;;6034422;23;20744;-81
2022/01/06 04:49:09;;;;;;;0.90;0.10;;;6.20;29.70;;;;;;6035284;23;20715;-78
2022/01/06 04:51:36;;;;;;;0.52;0.20;;;6.10;29.90;;;;;;6034381;23;20452;-78
2022/01/06 04:54:04;;;;;;;0.70;0.10;;;6.00;29.70;;;;;;6035838;23;20385;-81
2022/01/06 04:56:37;;;;;;;0.30;0.10;;;6.10;29.70;;;;;;6035603;23;20384;-79
2022/01/06 04:59:06;;;;;;;0.10;0.10;;;6.10;29.50;;;;;;6036015;23;20447;-81
2022/01/06 05:01:33;;;;;;;0.45;0.10;;;6.20;29.50;;;;;;6034736;23;20897;-78
2022/01/06 05:04:00;;;;;;;0.90;0.20;;;6.10;29.80;;;;;;6035475;23;20460;-78
2022/01/06 05:06:27;;;;;;;0.68;0.20;;;6.10;29.70;;;;;;6035660;23;20381;-81
2022/01/06 05:08:54;;;;;;;0.60;0.10;;;6.10;29.70;;;;;;6035027;23;20668;-78
2022/01/06 05:11:21;;;;;;;0.65;0.30;;;6.10;29.70;;;;;;6035240;23;20711;-78
2022/01/06 05:13:49;;;;;;;0.20;0.10;;;6.10;29.70;;;;;;6034155;23;20380;-78
2022/01/06 05:16:16;;;;;;;0.22;0.10;;;6.00;29.90;;;;;;6035297;23;20846;-78
2022/01/06 05:18:43;;;;;;;0.30;0.20;;;5.90;30.60;;;;;;6034891;23;20901;-79
2022/01/06 05:21:11;;;;;;;0.45;0.10;;;5.90;30.30;;;;;;6034903;23;20384;-79
2022/01/06 05:23:39;;;;;;;0.60;0.10;;;5.90;30.30;;;;;;6035133;23;20535;-79
2022/01/06 05:26:08;;;;;;;0.88;0.10;;;5.90;30.00;;;;;;6035585;23;20380;-81
2022/01/06 05:28:35;;;;;;;0.70;0.20;;;6.00;29.70;;;;;;6034892;23;20381;-79
2022/01/06 05:31:02;;;;;;;0.95;0.25;;;6.10;29.70;;;;;;6035207;23;20503;-81
2022/01/06 05:33:29;;;;;;;1.00;0.10;;;6.00;29.80;;;;;;6035646;23;20719;-78
2022/01/06 05:35:56;;;;;;;0.90;0.10;;;6.00;30.20;;;;;;6034503;23;20424;-79
2022/01/06 05:38:23;;;;;;;0.53;0.20;;;6.00;30.50;;;;;;6036241;23;20897;-79
2022/01/06 05:40:50;;;;;;;0.30;0.17;;;6.00;30.10;;;;;;6033881;23;20389;-79
2022/01/06 05:43:19;;;;;;;1.52;0.10;;;6.00;30.30;;;;;;6036572;23;20460;-78
2022/01/06 05:45:50;;;;;;;0.17;0.10;;;6.00;30.00;;;;;;6035752;23;20380;-79
2022/01/06 05:48:18;;;;;;;0.38;0.10;;;6.10;30.60;;;;;;6037252;23;20416;-79
2022/01/06 05:50:49;;;;;;;0.25;0.10;;;6.20;29.30;;;;;;6035545;23;20947;-78
2022/01/06 05:53:16;;;;;;;0.20;0.10;;;6.20;29.30;;;;;;6037123;23;20389;-79
2022/01/06 05:55:44;;;;;;;0.60;0.10;;;6.20;29.60;;;;;;6036495;23;20917;-81
2022/01/06 05:58:11;;;;;;;1.88;0.30;;;6.20;29.30;;;;;;6036905;23;20380;-80
2022/01/06 06:00:38;;;;;;;0.50;0.10;;;6.20;29.30;;;;;;6036434;23;20446;-78
2022/01/06 06:03:05;;;;;;;0.28;0.10;;;6.30;29.70;;;;;;6026718;23;20396;-79
2022/01/06 06:05:32;;;;;;;0.43;0.10;;;6.30;29.50;;;;;;6036459;23;20388;-79
2022/01/06 06:07:59;;;;;;;0.40;0.30;;;6.30;29.40;;;;;;6035891;23;20389;-78
2022/01/06 06:10:26;;;;;;;0.30;0.13;;;6.10;29.90;;;;;;6036821;23;20392;-79
2022/01/06 06:12:53;;;;;;;0.38;0.20;;;6.10;30.10;;;;;;6036043;23;20392;-81
2022/01/06 06:15:20;;;;;;;0.50;0.20;;;5.90;30.50;;;;;;6036818;23;20857;-79
2022/01/06 06:17:47;;;;;;;0.45;0.10;;;5.90;30.10;;;;;;6036230;23;20392;-79
2022/01/06 06:20:15;;;;;;;0.20;0.10;;;5.90;30.60;;;;;;6036962;23;21012;-79
2022/01/06 06:22:42;;;;;;;0.60;0.20;;;5.80;30.80;;;;;;6035575;23;20388;-80
2022/01/06 06:25:09;;;;;;;0.75;0.30;;;5.60;31.40;;;;;;6037811;23;20380;-78
2022/01/06 06:27:36;;;;;;;0.70;0.30;;;5.50;31.40;;;;;;6036883;23;20385;-77
2022/01/06 06:30:04;;;;;;;0.60;0.22;;;5.40;31.60;;;;;;6036136;23;20377;-77
2022/01/06 06:32:33;;;;;;;0.45;0.25;;;5.30;32.20;;;;;;6036269;23;20392;-77
2022/01/06 06:35:01;;;;;;;0.40;0.30;;;5.20;32.60;;;;;;6037277;23;20419;-79
2022/01/06 06:37:28;;;;;;;0.52;0.20;;;5.20;31.60;;;;;;6036067;23;20392;-80
2022/01/06 06:39:57;;;;;;;0.55;0.20;;;5.40;31.00;;;;;;6035953;23;20880;-79
2022/01/06 06:42:25;;;;;;;0.70;0.20;;;5.50;30.90;;;;;;6036423;23;20520;-79
2022/01/06 06:44:52;;;;;;;0.38;0.20;;;5.50;30.60;;;;;;6035736;23;20393;-78
2022/01/06 06:47:19;;;;;;;0.70;0.22;;;5.50;30.40;;;;;;6036169;23;20384;-80
2022/01/06 06:49:46;;;;;;;0.77;0.20;;;5.60;30.50;;;;;;6035486;23;20444;-79
2022/01/06 06:52:13;;;;;;;0.20;0.10;;;5.80;30.00;;;;;;6035866;23;20384;-78
2022/01/06 06:54:40;;;;;;;1.25;0.30;;;5.80;30.00;;;;;;6036919;23;20440;-79
2022/01/06 06:57:08;;;;;;;0.90;0.20;;;5.80;30.60;;;;;;6037089;23;20436;-79
2022/01/06 06:59:36;;;;;;;0.73;0.20;;;5.70;30.40;;;;;;6036599;23;20388;-81
2022/01/06 07:02:03;;;;;;;0.47;0.20;;;5.60;31.10;;;;;;6035254;23;20917;-79
2022/01/06 07:04:30;;;;;;;0.60;0.30;;;5.50;31.70;;;;;;6036157;23;20885;-79
2022/01/06 07:07:12;;;;;;;0.70;0.30;;;5.40;32.10;;;;;;6015557;23;20977;-77
2022/01/06 07:09:40;;;;;;;0.98;0.40;;;5.20;32.40;;;;;;6035790;23;20389;-79
2022/01/06 07:12:07;;;;;;;1.17;0.70;;;5.10;32.90;;;;;;6035284;23;20396;-79
2022/01/06 07:14:34;;;;;;;1.65;0.75;;;4.90;32.90;;;;;;6035929;23;20384;-78
2022/01/06 07:17:02;;;;;;;1.00;0.50;;;4.90;33.00;;;;;;6035542;23;20388;-80
2022/01/06 07:19:29;;;;;;;2.20;1.00;;;4.80;33.30;;;;;;6036240;23;20388;-78
2022/01/06 07:21:56;;;;;;;2.30;1.20;;;4.90;32.90;;;;;;6035094;23;20428;-79
2022/01/06 07:24:23;;;;;;;2.73;1.70;;;4.80;33.10;;;;;;6035834;23;20381;-79
2022/01/06 07:26:49;;;;;;;4.30;2.58;;;4.80;33.40;;;;;;6035133;23;20989;-80
2022/01/06 07:29:16;;;;;;;3.05;1.95;;;4.70;33.90;;;;;;6035745;23;20381;-78
2022/01/06 07:31:43;;;;;;;4.07;2.17;;;4.70;34.20;;;;;;6035401;23;20423;-78
2022/01/06 07:34:11;;;;;;;3.15;1.60;;;4.70;34.00;;;;;;6034964;23;20698;-81
2022/01/06 07:36:38;;;;;;;2.03;1.30;;;4.60;34.50;;;;;;6036506;23;20460;-78
2022/01/06 07:39:05;;;;;;;4.28;2.10;;;4.50;34.80;;;;;;6036274;23;20714;-81
2022/01/06 07:41:32;;;;;;;3.17;1.90;;;4.50;34.90;;;;;;6036159;23;20479;-79
2022/01/06 07:43:59;;;;;;;2.47;1.80;;;4.50;34.90;;;;;;6034684;23;20392;-79
2022/01/06 07:46:26;;;;;;;1.87;0.80;;;4.50;34.90;;;;;;6036322;23;20381;-78
2022/01/06 07:48:57;;;;;;;1.92;0.80;;;4.60;34.30;;;;;;6035153;23;20396;-79
2022/01/06 07:51:25;;;;;;;1.35;0.77;;;4.90;34.30;;;;;;6035756;23;20722;-78
2022/01/06 07:53:52;;;;;;;1.27;0.50;;;5.70;32.20;;;;;;6035490;23;20392;-81
2022/01/06 07:56:19;;;;;;;0.70;0.40;;;6.20;31.90;;;;;;6035862;23;20460;-77
2022/01/06 07:58:47;;;;;;;0.30;0.20;;;7.00;30.00;;;;;;6036031;23;20393;-78
2022/01/06 08:01:15;;;;;;;0.90;0.32;;;7.50;29.00;;;;;;6034966;23;20728;-78
2022/01/06 08:03:42;;;;;;;1.05;0.20;;;7.70;29.20;;;;;;6035858;23;20389;-79
2022/01/06 08:06:10;;;;;;;0.45;0.20;;;7.90;29.20;;;;;;6034750;23;20389;-77
2022/01/06 08:08:37;;;;;;;0.80;0.20;;;7.80;28.20;;;;;;6035931;23;20759;-79
2022/01/06 08:11:04;;;;;;;0.35;0.20;;;7.70;28.40;;;;;;6034310;23;20389;-77
2022/01/06 08:13:33;;;;;;;0.47;0.22;;;7.70;28.40;;;;;;6036384;23;20396;-80
2022/01/06 08:16:00;;;;;;;1.50;0.30;;;7.70;28.10;;;;;;6035120;23;20710;-78
2022/01/06 08:18:28;;;;;;;1.20;0.30;;;7.50;28.30;;;;;;6035139;23;20388;-77
2022/01/06 08:20:55;;;;;;;1.52;0.60;;;7.40;28.50;;;;;;6035225;23;20396;-77
2022/01/06 08:23:22;;;;;;;0.65;0.20;;;7.30;28.90;;;;;;6035613;23;20455;-79
2022/01/06 08:25:49;;;;;;;0.60;0.20;;;7.30;28.70;;;;;;6035747;23;20385;-81
2022/01/06 08:28:18;;;;;;;1.60;0.30;;;7.20;28.80;;;;;;6034531;23;20893;-79
2022/01/06 08:30:45;;;;;;;1.02;0.40;;;7.20;28.70;;;;;;6035535;23;20392;-80
2022/01/06 08:33:12;;;;;;;0.40;0.20;;;7.10;29.10;;;;;;6034752;23;20879;-81
2022/01/06 08:35:39;;;;;;;0.52;0.13;;;7.00;29.30;;;;;;6035636;23;20854;-81
2022/01/06 08:38:06;;;;;;;0.65;0.30;;;7.00;29.10;;;;;;6036504;23;20409;-79
2022/01/06 08:40:33;;;;;;;1.55;0.20;;;6.90;29.30;;;;;;6035829;23;20400;-79
2022/01/06 08:43:00;;;;;;;0.50;0.30;;;6.90;29.20;;;;;;6035179;23;20450;-79
2022/01/06 08:45:27;;;;;;;1.10;0.20;;;6.90;29.20;;;;;;6035677;23;20388;-77
2022/01/06 08:47:55;;;;;;;0.30;0.30;;;6.90;29.00;;;;;;6034397;23;20380;-80
2022/01/06 08:50:22;;;;;;;0.45;0.30;;;7.00;28.90;;;;;;6035505;23;20388;-77
2022/01/06 08:52:51;;;;;;;0.30;0.20;;;6.90;29.20;;;;;;6035215;23;20400;-81
2022/01/06 08:55:18;;;;;;;0.75;0.22;;;7.00;29.00;;;;;;6036733;23;20388;-80
2022/01/06 08:57:45;;;;;;;1.20;0.30;;;7.10;29.20;;;;;;6035535;23;20391;-79
2022/01/06 09:00:15;;;;;;;1.30;0.32;;;7.00;29.00;;;;;;6034320;23;20372;-78
2022/01/06 09:02:42;;;;;;;2.50;0.30;;;7.10;28.90;;;;;;6011649;23;20395;-79
2022/01/06 09:05:10;;;;;;;1.00;0.40;;;7.20;28.80;;;;;;6034185;23;20436;-81
2022/01/06 09:07:37;;;;;;;1.20;0.30;;;7.20;28.80;;;;;;6037357;23;20444;-81
2022/01/06 09:10:05;;;;;;;0.93;0.30;;;7.30;28.70;;;;;;6010809;23;20916;-81
2022/01/06 09:12:32;;;;;;;0.90;0.40;;;7.30;28.90;;;;;;6034875;23;20389;-78
2022/01/06 09:14:59;;;;;;;1.70;0.40;;;7.40;28.90;;;;;;6034632;23;20385;-79
2022/01/06 09:17:26;;;;;;;0.63;0.30;;;7.40;29.20;;;;;;6035292;23;20377;-78
2022/01/06 09:19:52;;;;;;;1.10;0.20;;;7.40;28.90;;;;;;6034667;23;20760;-77
2022/01/06 09:22:19;;;;;;;0.60;0.30;;;7.70;28.50;;;;;;6034217;23;20381;-81
2022/01/06 09:24:48;;;;;;;0.68;0.22;;;8.00;28.70;;;;;;6035275;23;20857;-81
2022/01/06 09:27:14;;;;;;;1.05;0.30;;;8.30;28.10;;;;;;6034695;23;20380;-81
2022/01/06 09:29:41;;;;;;;0.90;0.50;;;8.40;28.20;;;;;;6035359;23;20384;-80
2022/01/06 09:32:08;;;;;;;2.88;1.55;;;8.60;28.80;;;;;;6034206;23;20391;-78
2022/01/06 09:34:35;;;;;;;2.83;1.50;;;8.50;30.70;;;;;;6035281;23;20388;-79
2022/01/06 09:37:03;;;;;;;2.55;1.50;;;8.00;31.00;;;;;;6034675;23;20892;-80
2022/01/06 09:39:30;;;;;;;2.92;1.42;;;7.90;31.80;;;;;;6035321;23;20467;-81
2022/01/06 09:41:57;;;;;;;4.03;1.60;;;7.90;32.20;;;;;;6034270;23;20388;-78
2022/01/06 09:44:26;;;;;;;1.88;0.90;;;8.00;30.70;;;;;;6034386;23;20866;-80
2022/01/06 09:47:01;;;;;;;1.65;0.93;;;8.10;29.20;;;;;;6034696;23;20419;-79
2022/01/06 09:49:29;;;;;;;2.28;1.17;;;8.30;30.20;;;;;;6034901;23;20381;-80
2022/01/06 09:51:56;;;;;;;2.20;1.40;;;8.30;30.00;;;;;;6035343;23;20857;-79
2022/01/06 09:54:23;;;;;;;0.38;0.20;;;8.30;30.10;;;;;;6034837;23;20392;-80
2022/01/06 09:56:49;;;;;;;0.60;0.40;;;8.50;28.60;;;;;;6034352;23;20385;-79
2022/01/06 09:59:17;;;;;;;0.73;0.30;;;8.60;27.90;;;;;;6035115;23;20457;-79
2022/01/06 10:01:45;;;;;;;1.40;0.80;;;8.90;28.30;;;;;;6035362;23;20418;-79
2022/01/06 10:04:28;;;;;;;1.95;1.15;;;9.10;29.00;;;;;;6036506;23;20407;-77
2022/01/06 10:07:04;;;;;;;2.15;0.85;;;9.20;29.50;;;;;;6035186;23;20444;-79
2022/01/06 10:09:35;;;;;;;1.05;0.70;;;9.30;29.50;;;;;;6034907;23;20388;-78
2022/01/06 10:12:11;;;;;;;1.13;0.40;;;9.50;29.60;;;;;;6035224;23;20436;-79
2022/01/06 10:14:44;;;;;;;1.75;0.88;;;9.60;27.50;;;;;;6034450;23;20384;-79
2022/01/06 10:17:33;;;;;;;2.10;1.00;;;9.60;28.10;;;;;;6034685;23;20385;-79
2022/01/06 10:20:29;;;;;;;2.53;1.15;;;9.40;29.00;;;;;;6034616;23;20377;-80
2022/01/06 10:22:58;;;;;;;2.38;1.42;;;9.40;29.00;;;;;;6011050;23;20389;-79
2022/01/06 10:25:30;;;;;;;2.47;1.30;;;9.40;30.20;;;;;;6035049;23;20399;-79
2022/01/06 10:28:19;;;;;;;1.50;1.00;;;9.40;28.70;;;;;;6035022;23;20387;-80
2022/01/06 10:30:48;;;;;;;1.60;0.90;;;9.50;29.80;;;;;;6034714;23;20854;-81
2022/01/06 10:33:38;;;;;;;2.00;1.10;;;9.60;29.30;;;;;;6036241;23;20413;-78
2022/01/06 10:36:07;;;;;;;2.05;1.10;;;9.70;29.50;;;;;;6035882;23;20396;-80
2022/01/06 10:38:35;;;;;;;3.10;1.60;;;9.80;30.00;;;;;;6038644;23;20391;-79
2022/01/06 10:41:13;;;;;;;2.50;1.40;;;9.80;29.60;;;;;;6037591;23;20911;-80
2022/01/06 10:43:39;;;;;;;2.05;1.30;;;9.90;29.30;;;;;;6038354;23;20392;-80
2022/01/06 10:46:07;;;;;;;1.97;1.53;;;9.90;30.00;;;;;;6037463;23;20385;-77
2022/01/06 10:48:35;;;;;;;2.67;1.90;;;9.90;31.60;;;;;;6038801;23;20427;-80
2022/01/06 10:51:02;;;;;;;4.10;2.80;;;9.90;31.50;;;;;;6035926;23;20391;-80
2022/01/06 10:53:32;;;;;;;6.80;4.70;;;9.90;33.10;;;;;;6038258;23;20876;-79
2022/01/06 10:55:59;;;;;;;5.78;3.70;;;10.00;33.00;;;;;;6036627;23;20389;-78
2022/01/06 10:58:28;;;;;;;6.63;5.07;;;10.00;33.30;;;;;;6037611;23;20384;-81
2022/01/06 11:00:56;;;;;;;7.72;5.00;;;10.10;34.30;;;;;;6035692;23;20900;-79
2022/01/06 11:03:26;;;;;;;10.35;6.70;;;10.10;34.50;;;;;;6036497;23;20419;-81
2022/01/06 11:05:58;;;;;;;24.98;18.90;;;10.00;35.90;;;;;;6036897;23;20728;-78
2022/01/06 11:08:28;;;;;;;8.77;5.85;;;9.90;36.60;;;;;;6036201;23;20388;-79
2022/01/06 11:13:42;;;;;;;29.53;16.40;;;9.90;37.10;;;;;;6038635;23;20403;-77
2022/01/06 11:16:16;;;;;;;;;;;9.80;37.30;;;;;;6039679;23;20027;-79
2022/01/06 11:18:48;;;;;;;;;;;9.70;36.30;;;;;;6040919;23;20472;-81
2022/01/06 11:21:17;;;;;;;;;;;9.60;35.70;;;;;;6038937;23;19926;-80
2022/01/06 11:23:45;;;;;;;;;;;9.50;35.70;;;;;;6036987;23;20513;-78
2022/01/06 11:26:17;;;;;;;;;;;9.50;35.60;;;;;;6039858;23;19929;-81
2022/01/06 11:28:53;;;;;;;;;;;9.70;37.40;;;;;;6036864;23;19970;-80
2022/01/06 11:31:21;;;;;;;;;;;9.80;36.80;;;;;;6038243;23;20335;-80
2022/01/06 11:33:51;;;;;;;;;;;9.90;36.70;;;;;;6037097;23;19956;-79
2022/01/06 11:36:23;;;;;;;;;;;10.00;36.50;;;;;;6039653;23;19925;-79
2022/01/06 11:38:51;;;;;;;;;;;10.10;35.10;;;;;;6038837;23;20346;-80
2022/01/06 11:41:18;;;;;;;;;;;10.10;34.90;;;;;;6036829;23;20285;-79
2022/01/06 11:43:51;;;;;;;;;;;10.10;36.00;;;;;;6037530;23;19929;-78
2022/01/06 11:46:18;;;;;;;;;;;10.10;35.10;;;;;;6037532;23;19988;-77
2022/01/06 11:48:46;;;;;;;;;;;10.20;34.90;;;;;;6038108;23;19926;-79
2022/01/06 11:51:33;;;;;;;;;;;10.30;34.70;;;;;;6043776;23;19929;-80
2022/01/06 11:54:11;;;;;;;;;;;10.40;34.20;;;;;;6024808;23;21174;-79
2022/01/06 11:56:51;;;;;;;;;;;10.30;33.40;;;;;;6036648;23;19922;-79
2022/01/06 11:59:31;;;;;;;;;;;10.30;33.80;;;;;;6038823;23;19918;-79
2022/01/06 12:01:58;;;;;;;;;;;10.50;34.60;;;;;;6037323;23;20225;-79
2022/01/06 12:04:25;;;;;;;;;;;10.60;33.60;;;;;;6037192;23;19922;-79
2022/01/06 12:07:05;;;;;;;;;;;10.70;33.80;;;;;;6038191;23;20363;-80
2022/01/06 12:09:32;;;;;;;;;;;10.70;33.00;;;;;;6038593;23;19917;-79
2022/01/06 12:12:00;;;;;;;;;;;10.80;32.80;;;;;;6036368;23;19924;-77
2022/01/06 12:14:27;;;;;;;;;;;10.80;32.40;;;;;;6038151;23;19970;-79
2022/01/06 12:17:04;;;;;;;;;;;10.90;32.20;;;;;;6037772;23;19934;-79
2022/01/06 12:19:31;;;;;;;;;;;11.00;31.70;;;;;;6036248;23;20378;-79
2022/01/06 12:21:59;;;;;;;;;;;11.10;32.30;;;;;;6035888;23;19925;-80
2022/01/06 12:24:31;;;;;;;;;;;11.20;32.30;;;;;;6036643;23;19926;-76
2022/01/06 12:27:01;;;;;;;;;;;11.40;32.10;;;;;;6039054;23;19925;-80
2022/01/06 12:29:33;;;;;;;;;;;11.40;31.90;;;;;;6035816;23;19922;-79
2022/01/06 12:32:04;;;;;;;;;;;11.40;32.90;;;;;;6036926;23;19922;-80
2022/01/06 12:34:31;;;;;;;;;;;11.50;32.30;;;;;;6035725;23;19953;-80
2022/01/06 12:36:57;;;;;;;;;;;11.40;31.70;;;;;;6036147;23;19932;-81
2022/01/06 12:39:24;;;;;;;;;;;11.40;30.00;;;;;;6037860;23;20343;-80
2022/01/06 12:41:51;;;;;;;;;;;11.30;29.50;;;;;;6038454;23;19925;-80
2022/01/06 12:44:18;;;;;;;;;;;11.30;30.40;;;;;;6037761;23;19921;-81
2022/01/06 12:46:45;;;;;;;;;;;11.30;32.40;;;;;;6037706;23;19922;-80
2022/01/06 12:49:12;;;;;;;;;;;11.40;32.70;;;;;;6036825;23;19922;-77
2022/01/06 12:51:43;;;;;;;;;;;11.50;32.20;;;;;;6038016;23;19917;-79
2022/01/06 12:54:15;;;;;;;;;;;11.50;32.20;;;;;;6038158;23;19996;-79
2022/01/06 12:56:53;;;;;;;;;;;11.60;32.50;;;;;;6035630;23;19925;-77
2022/01/06 12:59:24;;;;;;;;;;;11.60;32.30;;;;;;6035778;23;19934;-80
2022/01/06 13:01:52;;;;;;;;;;;11.50;32.60;;;;;;6040247;23;19917;-81
2022/01/06 13:04:23;;;;;;;;;;;11.50;32.30;;;;;;6037710;23;19969;-80
2022/01/06 13:06:49;;;;;;;;;;;11.70;33.30;;;;;;6036283;23;20392;-80
2022/01/06 13:09:18;;;;;;;;;;;11.80;33.40;;;;;;6036395;23;19970;-80
2022/01/06 13:11:52;;;;;;;14.30;6.70;;;11.70;32.70;;;;;;6036613;23;19941;-77
2022/01/06 13:14:29;;;;;;;9.13;4.47;;;11.60;32.80;;;;;;6038679;23;20042;-80
2022/01/06 13:17:14;;;;;;;6.07;3.50;;;11.80;33.70;;;;;;6035394;23;20468;-76
2022/01/06 13:20:00;;;;;;;2.38;1.42;;;11.90;33.90;;;;;;6039219;23;20075;-80
2022/01/06 13:25:32;;;;;;;2.50;1.80;;;12.00;32.80;;;;;;6037890;23;20547;-77
2022/01/06 13:28:09;;;;;;;3.63;2.25;;;12.10;33.30;;;;;;6036783;23;20027;-79
2022/01/06 13:30:43;;;;;;;13.05;7.97;;;12.20;33.40;;;;;;6035661;23;20031;-80
2022/01/06 13:33:12;;;;;;;44.22;20.40;;;12.10;32.10;;;;;;6035715;23;20023;-79